createdAt,value
2017-06-29T00:01:26.465Z,98426
2017-06-29T00:03:54.691Z,98426
2017-06-29T00:06:22.849Z,98437
2017-06-29T00:08:51.001Z,98427
2017-06-29T00:11:19.160Z,98429
2017-06-29T00:13:47.339Z,98438
2017-06-29T00:16:15.557Z,98434
2017-06-29T00:18:43.868Z,98449
2017-06-29T00:21:12.830Z,98451
2017-06-29T00:23:41.060Z,98449
2017-06-29T00:26:09.199Z,98449
2017-06-29T00:28:38.156Z,98463
2017-06-29T00:31:06.313Z,98467
2017-06-29T00:33:34.479Z,98473
2017-06-29T00:36:02.635Z,98477
2017-06-29T00:38:30.832Z,98477
2017-06-29T00:40:58.963Z,98474
2017-06-29T00:43:27.910Z,98477
2017-06-29T00:45:56.072Z,98470
2017-06-29T00:48:24.255Z,98471
2017-06-29T00:50:52.421Z,98469
2017-06-29T00:53:20.847Z,98471
2017-06-29T00:55:49.833Z,98467
2017-06-29T00:58:17.994Z,98474
2017-06-29T01:00:46.230Z,98467
2017-06-29T01:03:14.388Z,98476
2017-06-29T01:05:42.574Z,98475
2017-06-29T01:08:10.750Z,98466
2017-06-29T01:10:38.935Z,98461
2017-06-29T01:13:07.129Z,98464
2017-06-29T01:15:35.285Z,98461
2017-06-29T01:18:03.484Z,98469
2017-06-29T01:20:31.630Z,98463
2017-06-29T01:22:59.814Z,98467
2017-06-29T01:25:27.989Z,98449
2017-06-29T01:27:56.140Z,98457
2017-06-29T01:30:24.345Z,98455
2017-06-29T01:32:52.493Z,98450
2017-06-29T01:35:20.686Z,98460
2017-06-29T01:37:48.859Z,98455
2017-06-29T01:40:17.043Z,98454
2017-06-29T01:42:45.194Z,98461
2017-06-29T01:45:13.351Z,98463
2017-06-29T01:47:41.561Z,98463
2017-06-29T01:50:09.682Z,98463
2017-06-29T01:52:37.850Z,98462
2017-06-29T01:55:06.006Z,98461
2017-06-29T01:57:34.177Z,98467
2017-06-29T02:00:02.396Z,98467
2017-06-29T02:02:30.584Z,98476
2017-06-29T02:04:58.717Z,98472
2017-06-29T02:07:26.854Z,98471
2017-06-29T02:09:55.777Z,98477
2017-06-29T02:12:24.166Z,98479
2017-06-29T02:14:52.338Z,98478
2017-06-29T02:17:20.492Z,98481
2017-06-29T02:19:48.661Z,98483
2017-06-29T02:22:16.841Z,98480
2017-06-29T02:24:44.983Z,98488
2017-06-29T02:27:13.906Z,98490
2017-06-29T02:29:42.074Z,98493
2017-06-29T02:32:10.253Z,98494
2017-06-29T02:34:38.402Z,98495
2017-06-29T02:37:07.317Z,98494
2017-06-29T02:39:35.498Z,98497
2017-06-29T02:42:03.626Z,98497
2017-06-29T02:44:32.540Z,98503
2017-06-29T02:47:00.709Z,98510
2017-06-29T02:49:28.913Z,98512
2017-06-29T02:51:57.119Z,98512
2017-06-29T02:54:25.286Z,98518
2017-06-29T02:56:53.430Z,98522
2017-06-29T02:59:21.636Z,98530
2017-06-29T03:01:49.984Z,98526
2017-06-29T03:04:18.119Z,98528
2017-06-29T03:06:47.098Z,98538
2017-06-29T03:09:15.381Z,98531
2017-06-29T03:11:44.309Z,98544
2017-06-29T03:14:12.478Z,98543
2017-06-29T03:16:40.641Z,98546
2017-06-29T03:19:08.842Z,98555
2017-06-29T03:21:36.993Z,98548
2017-06-29T03:24:05.161Z,98559
2017-06-29T03:26:33.351Z,98558
2017-06-29T03:29:01.542Z,98555
2017-06-29T03:31:29.863Z,98561
2017-06-29T03:33:58.774Z,98560
2017-06-29T03:36:26.920Z,98562
2017-06-29T03:38:56.014Z,98556
2017-06-29T03:41:24.955Z,98561
2017-06-29T03:43:53.137Z,98560
2017-06-29T03:46:21.296Z,98570
2017-06-29T03:48:49.472Z,98560
2017-06-29T03:51:17.749Z,98571
2017-06-29T03:53:46.082Z,98572
2017-06-29T03:56:15.122Z,98566
2017-06-29T03:58:43.276Z,98565
2017-06-29T04:01:11.462Z,98562
2017-06-29T04:03:39.626Z,98562
2017-06-29T04:06:07.792Z,98561
2017-06-29T04:08:36.032Z,98561
2017-06-29T04:11:04.332Z,98563
2017-06-29T04:13:33.356Z,98565
2017-06-29T04:16:01.482Z,98570
2017-06-29T04:18:30.454Z,98570
2017-06-29T04:20:58.634Z,98571
2017-06-29T04:23:26.781Z,98568
2017-06-29T04:25:54.974Z,98566
2017-06-29T04:28:23.161Z,98572
2017-06-29T04:30:52.094Z,98573
2017-06-29T04:33:20.333Z,98574
2017-06-29T04:35:49.374Z,98567
2017-06-29T04:38:17.511Z,98564
2017-06-29T04:40:46.461Z,98570
2017-06-29T04:43:14.631Z,98569
2017-06-29T04:45:42.811Z,98578
2017-06-29T04:48:10.995Z,98574
2017-06-29T04:50:39.130Z,98572
2017-06-29T04:53:07.398Z,98577
2017-06-29T04:55:35.531Z,98568
2017-06-29T04:58:04.468Z,98581
2017-06-29T05:00:32.634Z,98578
2017-06-29T05:03:00.785Z,98574
2017-06-29T05:05:28.964Z,98574
2017-06-29T05:07:57.150Z,98580
2017-06-29T05:10:25.336Z,98574
2017-06-29T05:12:53.506Z,98582
2017-06-29T05:15:21.718Z,98577
2017-06-29T05:17:49.917Z,98577
2017-06-29T05:20:18.934Z,98584
2017-06-29T05:22:47.079Z,98588
2017-06-29T05:25:16.050Z,98583
2017-06-29T05:27:44.207Z,98585
2017-06-29T05:30:12.372Z,98581
2017-06-29T05:32:40.557Z,98590
2017-06-29T05:35:08.718Z,98587
2017-06-29T05:37:36.904Z,98590
2017-06-29T05:40:05.059Z,98592
2017-06-29T05:42:33.247Z,98589
2017-06-29T05:45:01.406Z,98588
2017-06-29T05:47:29.595Z,98598
2017-06-29T05:49:57.738Z,98601
2017-06-29T05:52:25.900Z,98595
2017-06-29T05:54:54.130Z,98596
2017-06-29T05:57:22.275Z,98595
2017-06-29T05:59:50.617Z,98603
2017-06-29T06:02:18.813Z,98615
2017-06-29T06:04:47.003Z,98614
2017-06-29T06:07:15.155Z,98610
2017-06-29T06:09:43.330Z,98618
2017-06-29T06:12:11.517Z,98619
2017-06-29T06:14:39.702Z,98616
2017-06-29T06:17:07.865Z,98615
2017-06-29T06:19:36.019Z,98618
2017-06-29T06:22:04.196Z,98618
2017-06-29T06:24:32.351Z,98627
2017-06-29T06:27:00.520Z,98622
2017-06-29T06:29:28.686Z,98632
2017-06-29T06:31:57.154Z,98632
2017-06-29T06:34:26.061Z,98629
2017-06-29T06:36:54.221Z,98636
2017-06-29T06:39:23.158Z,98638
2017-06-29T06:41:51.338Z,98629
2017-06-29T06:44:19.606Z,98642
2017-06-29T06:46:47.776Z,98639
2017-06-29T06:49:15.911Z,98633
2017-06-29T06:51:44.833Z,98635
2017-06-29T06:54:12.971Z,98632
2017-06-29T06:56:42.056Z,98634
2017-06-29T06:59:10.969Z,98631
2017-06-29T07:01:39.185Z,98638
2017-06-29T07:04:07.353Z,98633
2017-06-29T07:06:35.513Z,98630
2017-06-29T07:09:03.682Z,98637
2017-06-29T07:11:31.900Z,98637
2017-06-29T07:14:00.068Z,98642
2017-06-29T07:16:28.258Z,98639
2017-06-29T07:18:57.191Z,98640
2017-06-29T07:21:25.409Z,98648
2017-06-29T07:23:53.644Z,98649
2017-06-29T07:26:21.808Z,98643
2017-06-29T07:28:49.990Z,98646
2017-06-29T07:31:18.208Z,98649
2017-06-29T07:33:46.357Z,98646
2017-06-29T07:36:14.506Z,98645
2017-06-29T07:38:42.726Z,98652
2017-06-29T07:41:10.892Z,98653
2017-06-29T07:43:39.046Z,98650
2017-06-29T07:46:07.249Z,98660
2017-06-29T07:48:36.387Z,98653
2017-06-29T07:51:04.573Z,98654
2017-06-29T07:53:32.779Z,98662
2017-06-29T07:56:01.011Z,98662
2017-06-29T07:58:29.129Z,98674
2017-06-29T08:00:57.301Z,98675
2017-06-29T08:03:25.454Z,98671
2017-06-29T08:05:53.646Z,98666
2017-06-29T08:08:21.813Z,98667
2017-06-29T08:10:49.997Z,98665
2017-06-29T08:13:18.195Z,98668
2017-06-29T08:15:47.161Z,98674
2017-06-29T08:18:15.323Z,98676
2017-06-29T08:20:43.494Z,98676
2017-06-29T08:23:11.681Z,98673
2017-06-29T08:25:39.826Z,98686
2017-06-29T08:28:07.977Z,98683
2017-06-29T08:30:36.150Z,98687
2017-06-29T08:33:05.234Z,98684
2017-06-29T08:35:33.414Z,98678
2017-06-29T08:38:01.618Z,98682
2017-06-29T08:40:29.781Z,98679
2017-06-29T08:42:57.919Z,98684
2017-06-29T08:45:26.960Z,98680
2017-06-29T08:47:55.149Z,98690
2017-06-29T08:50:23.326Z,98687
2017-06-29T08:52:51.531Z,98686
2017-06-29T08:55:19.759Z,98685
2017-06-29T08:57:47.958Z,98689
2017-06-29T09:00:16.876Z,98688
2017-06-29T09:02:45.105Z,98694
2017-06-29T09:05:13.247Z,98687
2017-06-29T09:07:41.350Z,98690
2017-06-29T09:10:09.543Z,98682
2017-06-29T09:12:38.474Z,98694
2017-06-29T09:15:06.687Z,98689
2017-06-29T09:17:34.873Z,98693
2017-06-29T09:20:03.871Z,98692
2017-06-29T09:22:32.133Z,98690
2017-06-29T09:25:00.287Z,98688
2017-06-29T09:27:28.604Z,98682
2017-06-29T09:29:57.524Z,98685
2017-06-29T09:32:25.673Z,98692
2017-06-29T09:34:54.621Z,98689
2017-06-29T09:37:22.833Z,98689
2017-06-29T09:39:51.774Z,98696
2017-06-29T09:42:19.969Z,98690
2017-06-29T09:44:48.137Z,98691
2017-06-29T09:47:16.383Z,98688
2017-06-29T09:49:44.606Z,98692
2017-06-29T09:52:13.525Z,98695
2017-06-29T09:54:41.678Z,98697
2017-06-29T09:57:10.656Z,98692
2017-06-29T09:59:38.814Z,98694
2017-06-29T10:02:07.021Z,98698
2017-06-29T10:04:35.181Z,98692
2017-06-29T10:07:04.130Z,98695
2017-06-29T10:09:32.327Z,98698
2017-06-29T10:12:00.490Z,98688
2017-06-29T10:14:28.656Z,98693
2017-06-29T10:16:56.825Z,98696
2017-06-29T10:19:24.987Z,98701
2017-06-29T10:21:53.236Z,98696
2017-06-29T10:24:22.147Z,98696
2017-06-29T10:26:50.296Z,98688
2017-06-29T10:29:18.500Z,98703
2017-06-29T10:31:46.651Z,98697
2017-06-29T10:34:14.829Z,98696
2017-06-29T10:36:43.042Z,98705
2017-06-29T10:39:11.210Z,98705
2017-06-29T10:41:39.379Z,98700
2017-06-29T10:44:07.561Z,98703
2017-06-29T10:46:35.764Z,98704
2017-06-29T10:49:04.751Z,98711
2017-06-29T10:51:33.675Z,98714
2017-06-29T10:54:01.865Z,98710
2017-06-29T10:56:30.045Z,98712
2017-06-29T10:58:58.189Z,98714
2017-06-29T11:01:26.362Z,98722
2017-06-29T11:03:54.517Z,98720
2017-06-29T11:06:23.403Z,98728
2017-06-29T11:08:52.616Z,98724
2017-06-29T11:11:20.762Z,98721
2017-06-29T11:13:48.926Z,98716
2017-06-29T11:16:17.121Z,98716
2017-06-29T11:18:46.088Z,98712
2017-06-29T11:21:14.274Z,98712
2017-06-29T11:23:42.450Z,98708
2017-06-29T11:26:11.416Z,98710
2017-06-29T11:28:39.591Z,98712
2017-06-29T11:31:07.735Z,98716
2017-06-29T11:33:35.946Z,98712
2017-06-29T11:36:04.097Z,98714
2017-06-29T11:38:32.357Z,98710
2017-06-29T11:41:00.498Z,98714
2017-06-29T11:43:28.657Z,98713
2017-06-29T11:45:57.607Z,98715
2017-06-29T11:48:25.785Z,98721
2017-06-29T11:50:53.956Z,98707
2017-06-29T11:53:22.170Z,98714
2017-06-29T11:55:50.436Z,98715
2017-06-29T11:58:18.637Z,98714
2017-06-29T12:00:46.877Z,98710
2017-06-29T12:03:15.213Z,98706
2017-06-29T12:05:43.382Z,98710
2017-06-29T12:08:11.588Z,98712
2017-06-29T12:10:39.805Z,98705
2017-06-29T12:13:08.713Z,98714
2017-06-29T12:15:36.897Z,98712
2017-06-29T12:18:05.091Z,98721
2017-06-29T12:20:33.350Z,98736
2017-06-29T12:23:01.849Z,98735
2017-06-29T12:25:30.001Z,98729
2017-06-29T12:27:58.197Z,98736
2017-06-29T12:30:26.449Z,98741
2017-06-29T12:32:54.578Z,98726
2017-06-29T12:35:23.517Z,98723
2017-06-29T12:37:51.739Z,98725
2017-06-29T12:40:20.655Z,98724
2017-06-29T12:42:48.811Z,98727
2017-06-29T12:45:17.757Z,98726
2017-06-29T12:47:46.175Z,98730
2017-06-29T12:50:15.113Z,98725
2017-06-29T12:52:43.286Z,98724
2017-06-29T12:55:11.439Z,98727
2017-06-29T12:57:39.632Z,98719
2017-06-29T13:00:07.836Z,98715
2017-06-29T13:02:35.986Z,98717
2017-06-29T13:05:04.139Z,98713
2017-06-29T13:07:32.485Z,98717
2017-06-29T13:10:01.403Z,98709
2017-06-29T13:12:29.556Z,98711
2017-06-29T13:14:57.790Z,98709
2017-06-29T13:17:25.959Z,98710
2017-06-29T13:19:54.211Z,98709
2017-06-29T13:22:22.387Z,98710
2017-06-29T13:24:50.572Z,98716
2017-06-29T13:27:18.831Z,98717
2017-06-29T13:29:47.009Z,98716
2017-06-29T13:32:15.177Z,98713
2017-06-29T13:34:43.350Z,98716
2017-06-29T13:37:11.681Z,98709
2017-06-29T13:39:40.595Z,98709
2017-06-29T13:42:08.812Z,98711
2017-06-29T13:44:37.280Z,98700
2017-06-29T13:47:05.448Z,98701
2017-06-29T13:49:33.588Z,98696
2017-06-29T13:52:01.739Z,98698
2017-06-29T13:54:30.666Z,98694
2017-06-29T13:56:58.858Z,98694
2017-06-29T13:59:27.027Z,98704
2017-06-29T14:01:55.180Z,98704
2017-06-29T14:04:23.382Z,98703
2017-06-29T14:06:52.313Z,98703
2017-06-29T14:09:20.526Z,98706
2017-06-29T14:11:48.715Z,98713
2017-06-29T14:14:17.042Z,98709
2017-06-29T14:16:45.980Z,98704
2017-06-29T14:19:14.161Z,98709
2017-06-29T14:21:42.347Z,98709
2017-06-29T14:24:10.524Z,98705
2017-06-29T14:26:38.751Z,98711
2017-06-29T14:29:06.891Z,98709
2017-06-29T14:31:35.086Z,98719
2017-06-29T14:34:03.270Z,98712
2017-06-29T14:36:31.450Z,98712
2017-06-29T14:39:00.351Z,98712
2017-06-29T14:41:28.672Z,98704
2017-06-29T14:43:57.005Z,98709
2017-06-29T14:46:25.149Z,98709
2017-06-29T14:48:54.085Z,98712
2017-06-29T14:51:22.306Z,98711
2017-06-29T14:53:51.258Z,98703
2017-06-29T14:56:19.426Z,98697
2017-06-29T14:58:47.594Z,98700
2017-06-29T15:01:15.805Z,98698
2017-06-29T15:03:44.002Z,98691
2017-06-29T15:06:12.208Z,98689
2017-06-29T15:08:40.402Z,98693
2017-06-29T15:11:08.613Z,98693
2017-06-29T15:13:37.549Z,98689
2017-06-29T15:16:05.758Z,98689
2017-06-29T15:18:33.928Z,98689
2017-06-29T15:21:02.109Z,98685
2017-06-29T15:23:30.252Z,98688
2017-06-29T15:25:58.407Z,98693
2017-06-29T15:28:26.599Z,98685
2017-06-29T15:30:54.791Z,98696
2017-06-29T15:33:22.950Z,98706
2017-06-29T15:35:51.306Z,98719
2017-06-29T15:38:19.475Z,98723
2017-06-29T15:40:47.681Z,98731
2017-06-29T15:43:15.833Z,98749
2017-06-29T15:45:44.003Z,98768
2017-06-29T15:48:12.169Z,98783
2017-06-29T15:50:40.351Z,98800
2017-06-29T15:53:08.511Z,98804
2017-06-29T15:55:36.704Z,98812
2017-06-29T15:58:04.867Z,98801
2017-06-29T16:00:33.025Z,98801
2017-06-29T16:03:01.224Z,98804
2017-06-29T16:05:29.394Z,98818
2017-06-29T16:07:57.552Z,98816
2017-06-29T16:10:25.702Z,98823
2017-06-29T16:12:53.881Z,98822
2017-06-29T16:15:22.058Z,98821
2017-06-29T16:17:50.253Z,98820
2017-06-29T16:20:18.456Z,98818
2017-06-29T16:22:46.599Z,98814
2017-06-29T16:25:14.767Z,98820
2017-06-29T16:27:42.966Z,98816
2017-06-29T16:30:11.195Z,98830
2017-06-29T16:32:39.388Z,98831
2017-06-29T16:35:07.555Z,98822
2017-06-29T16:37:35.761Z,98826
2017-06-29T16:40:03.936Z,98828
2017-06-29T16:42:32.126Z,98829
2017-06-29T16:45:00.333Z,98831
2017-06-29T16:47:29.794Z,98824
2017-06-29T16:49:57.971Z,98820
2017-06-29T16:52:26.141Z,98814
2017-06-29T16:54:54.381Z,98810
2017-06-29T16:57:22.572Z,98814
2017-06-29T16:59:50.839Z,98812
2017-06-29T17:02:18.978Z,98818
2017-06-29T17:04:47.169Z,98819
2017-06-29T17:07:15.446Z,98824
2017-06-29T17:09:43.639Z,98825
2017-06-29T17:12:11.802Z,98826
2017-06-29T17:14:40.011Z,98824
2017-06-29T17:17:08.154Z,98827
2017-06-29T17:19:36.342Z,98818
2017-06-29T17:22:04.518Z,98828
2017-06-29T17:24:32.685Z,98825
2017-06-29T17:27:00.853Z,98823
2017-06-29T17:29:29.055Z,98826
2017-06-29T17:31:57.996Z,98826
2017-06-29T17:34:26.204Z,98827
2017-06-29T17:36:54.357Z,98827
2017-06-29T17:39:22.514Z,98831
2017-06-29T17:41:50.697Z,98829
2017-06-29T17:44:18.941Z,98835
2017-06-29T17:46:47.087Z,98841
2017-06-29T17:49:16.045Z,98855
2017-06-29T17:51:44.215Z,98862
2017-06-29T17:54:12.377Z,98869
2017-06-29T17:56:40.529Z,98880
2017-06-29T17:59:08.811Z,98889
2017-06-29T18:01:37.001Z,98888
2017-06-29T18:04:05.181Z,98893
2017-06-29T18:06:33.343Z,98902
2017-06-29T18:09:01.635Z,98902
2017-06-29T18:11:29.819Z,98911
2017-06-29T18:13:58.019Z,98922
2017-06-29T18:16:26.209Z,98932
2017-06-29T18:18:55.257Z,98930
2017-06-29T18:21:23.609Z,98943
2017-06-29T18:23:51.822Z,98941
2017-06-29T18:26:20.020Z,98948
2017-06-29T18:28:48.990Z,98947
2017-06-29T18:31:17.146Z,98947
2017-06-29T18:33:45.378Z,98947
2017-06-29T18:36:13.646Z,98952
2017-06-29T18:38:41.842Z,98946
2017-06-29T18:41:10.007Z,98942
2017-06-29T18:43:38.190Z,98950
2017-06-29T18:46:06.352Z,98946
2017-06-29T18:48:34.543Z,98954
2017-06-29T18:51:02.726Z,98958
2017-06-29T18:53:30.876Z,98951
2017-06-29T18:55:59.073Z,98944
2017-06-29T18:58:27.251Z,98948
2017-06-29T19:00:55.427Z,98949
2017-06-29T19:03:23.663Z,98960
2017-06-29T19:05:51.837Z,98962
2017-06-29T19:08:20.058Z,98967
2017-06-29T19:10:48.250Z,98977
2017-06-29T19:13:16.445Z,98979
2017-06-29T19:15:44.746Z,98975
2017-06-29T19:18:12.886Z,98981
2017-06-29T19:20:41.037Z,98986
2017-06-29T19:23:09.258Z,98990
2017-06-29T19:25:37.429Z,98988
2017-06-29T19:28:05.621Z,98987
2017-06-29T19:30:33.824Z,98997
2017-06-29T19:33:01.977Z,98998
2017-06-29T19:35:30.169Z,99002
2017-06-29T19:37:58.378Z,99007
2017-06-29T19:40:27.349Z,99002
2017-06-29T19:42:56.294Z,99015
2017-06-29T19:45:24.491Z,99016
2017-06-29T19:47:52.772Z,99031
2017-06-29T19:50:20.997Z,99033
2017-06-29T19:52:49.189Z,99051
2017-06-29T19:55:17.360Z,99047
2017-06-29T19:57:45.573Z,99054
2017-06-29T20:00:13.766Z,99064
2017-06-29T20:02:42.815Z,99069
2017-06-29T20:05:11.009Z,99072
2017-06-29T20:07:39.182Z,99070
2017-06-29T20:10:07.367Z,99066
2017-06-29T20:12:35.566Z,99060
2017-06-29T20:15:04.571Z,99066
2017-06-29T20:17:32.932Z,99064
2017-06-29T20:20:01.871Z,99068
2017-06-29T20:22:30.080Z,99081
2017-06-29T20:24:58.247Z,99076
2017-06-29T20:27:26.461Z,99076
2017-06-29T20:29:54.639Z,99078
2017-06-29T20:32:22.808Z,99086
2017-06-29T20:34:51.002Z,99078
2017-06-29T20:37:19.197Z,99077
2017-06-29T20:39:47.355Z,99081
2017-06-29T20:42:15.588Z,99084
2017-06-29T20:44:44.526Z,99084
2017-06-29T20:47:12.707Z,99088
2017-06-29T20:49:40.922Z,99086
2017-06-29T20:52:09.113Z,99096
2017-06-29T20:54:37.302Z,99100
2017-06-29T20:57:05.499Z,99102
2017-06-29T20:59:33.653Z,99099
2017-06-29T21:02:01.844Z,99101
2017-06-29T21:04:30.053Z,99096
2017-06-29T21:06:58.989Z,99103
2017-06-29T21:09:27.199Z,99103
2017-06-29T21:11:55.348Z,99103
2017-06-29T21:14:23.580Z,99105
2017-06-29T21:16:51.823Z,99106
2017-06-29T21:19:20.002Z,99108
2017-06-29T21:21:48.208Z,99114
2017-06-29T21:24:16.397Z,99115
2017-06-29T21:26:44.546Z,99117
2017-06-29T21:29:13.476Z,99122
2017-06-29T21:31:41.660Z,99123
2017-06-29T21:34:09.838Z,99115
2017-06-29T21:36:37.998Z,99122
2017-06-29T21:39:06.190Z,99115
2017-06-29T21:41:34.439Z,99105
2017-06-29T21:44:02.623Z,99121
2017-06-29T21:46:30.795Z,99118
2017-06-29T21:48:59.006Z,99132
2017-06-29T21:51:27.958Z,99130
2017-06-29T21:53:56.120Z,99135
2017-06-29T21:56:24.266Z,99132
2017-06-29T21:58:52.474Z,99129
2017-06-29T22:01:20.674Z,99128
2017-06-29T22:03:48.821Z,99124
2017-06-29T22:06:16.999Z,99132
2017-06-29T22:08:45.158Z,99135
2017-06-29T22:11:13.438Z,99131
2017-06-29T22:13:41.609Z,99134
2017-06-29T22:16:09.799Z,99139
2017-06-29T22:18:38.056Z,99130
2017-06-29T22:21:06.210Z,99143
2017-06-29T22:23:34.366Z,99143
2017-06-29T22:26:03.314Z,99149
2017-06-29T22:28:31.485Z,99152
2017-06-29T22:30:59.653Z,99160
2017-06-29T22:33:27.849Z,99155
2017-06-29T22:35:56.046Z,99158
2017-06-29T22:38:24.994Z,99164
2017-06-29T22:40:53.175Z,99156
2017-06-29T22:43:21.342Z,99160
2017-06-29T22:45:49.658Z,99159
2017-06-29T22:48:18.582Z,99173
2017-06-29T22:50:46.741Z,99174
2017-06-29T22:53:15.664Z,99180
2017-06-29T22:55:43.862Z,99181
2017-06-29T22:58:12.024Z,99175
2017-06-29T23:00:40.193Z,99174
2017-06-29T23:03:08.365Z,99180
2017-06-29T23:05:36.535Z,99177
2017-06-29T23:08:04.690Z,99177
2017-06-29T23:10:32.862Z,99177
2017-06-29T23:13:01.049Z,99182
2017-06-29T23:15:29.208Z,99181
2017-06-29T23:17:57.506Z,99179
2017-06-29T23:20:25.669Z,99181
2017-06-29T23:22:53.846Z,99181
2017-06-29T23:25:22.008Z,99187
2017-06-29T23:27:50.198Z,99182
2017-06-29T23:30:18.363Z,99187
2017-06-29T23:32:46.565Z,99196
2017-06-29T23:35:14.710Z,99193
2017-06-29T23:37:42.866Z,99195
2017-06-29T23:40:11.031Z,99192
2017-06-29T23:42:39.181Z,99201
2017-06-29T23:45:08.162Z,99202
2017-06-29T23:47:36.307Z,99204
2017-06-29T23:50:04.486Z,99196
2017-06-29T23:52:32.638Z,99203
2017-06-29T23:55:00.835Z,99204
2017-06-29T23:57:28.993Z,99203
2017-06-29T23:59:57.205Z,99205
